sensor_id;sensor_type;location;lat;lon;timestamp;pressure;altitude;pressure_sealevel;temperature;humidity
48035;BME280;33812;46.480;6.834;2023-04-23T00:01:33;93275.34;;;20.32;41.94
48035;BME280;33812;46.480;6.834;2023-04-23T00:05:42;93280.84;;;20.32;42.03
48035;BME280;33812;46.480;6.834;2023-04-23T00:09:45;93277.75;;;20.30;42.12
48035;BME280;33812;46.480;6.834;2023-04-23T00:13:48;93272.94;;;20.21;42.28
48035;BME280;33812;46.480;6.834;2023-04-23T00:17:50;93267.19;;;20.28;42.29
48035;BME280;33812;46.480;6.834;2023-04-23T00:21:54;93271.34;;;20.33;42.65
48035;BME280;33812;46.480;6.834;2023-04-23T00:25:57;93270.25;;;20.31;42.16
48035;BME280;33812;46.480;6.834;2023-04-23T00:30:00;93266.22;;;20.22;41.81
48035;BME280;33812;46.480;6.834;2023-04-23T00:34:03;93263.44;;;20.22;42.35
48035;BME280;33812;46.480;6.834;2023-04-23T00:38:06;93254.28;;;20.25;42.41
48035;BME280;33812;46.480;6.834;2023-04-23T00:42:08;93247.84;;;20.28;42.32
48035;BME280;33812;46.480;6.834;2023-04-23T00:46:12;93255.41;;;20.15;42.13
48035;BME280;33812;46.480;6.834;2023-04-23T00:50:14;93264.19;;;20.23;42.07
48035;BME280;33812;46.480;6.834;2023-04-23T00:54:17;93256.06;;;20.19;41.94
48035;BME280;33812;46.480;6.834;2023-04-23T00:58:19;93266.09;;;20.13;41.83
48035;BME280;33812;46.480;6.834;2023-04-23T01:02:21;93256.28;;;20.12;41.99
48035;BME280;33812;46.480;6.834;2023-04-23T01:06:24;93263.44;;;20.09;42.40
48035;BME280;33812;46.480;6.834;2023-04-23T01:10:30;93246.66;;;20.03;42.47
48035;BME280;33812;46.480;6.834;2023-04-23T01:14:35;93257.50;;;20.11;42.58
48035;BME280;33812;46.480;6.834;2023-04-23T01:18:37;93249.88;;;20.15;42.40
48035;BME280;33812;46.480;6.834;2023-04-23T01:22:41;93247.69;;;20.10;42.59
48035;BME280;33812;46.480;6.834;2023-04-23T01:26:43;93245.56;;;20.01;42.72
48035;BME280;33812;46.480;6.834;2023-04-23T01:30:45;93246.56;;;20.07;42.82
48035;BME280;33812;46.480;6.834;2023-04-23T01:34:49;93248.66;;;20.03;42.63
48035;BME280;33812;46.480;6.834;2023-04-23T01:38:54;93247.13;;;20.15;42.42
48035;BME280;33812;46.480;6.834;2023-04-23T01:42:56;93241.28;;;20.00;42.71
48035;BME280;33812;46.480;6.834;2023-04-23T01:46:57;93242.91;;;19.97;42.46
48035;BME280;33812;46.480;6.834;2023-04-23T01:50:59;93237.63;;;20.03;42.85
48035;BME280;33812;46.480;6.834;2023-04-23T01:55:03;93244.66;;;20.04;42.45
48035;BME280;33812;46.480;6.834;2023-04-23T01:59:05;93262.69;;;19.96;42.44
48035;BME280;33812;46.480;6.834;2023-04-23T02:03:07;93258.25;;;19.98;42.35
48035;BME280;33812;46.480;6.834;2023-04-23T02:07:10;93257.81;;;20.00;42.50
48035;BME280;33812;46.480;6.834;2023-04-23T02:11:13;93258.50;;;19.91;42.61
48035;BME280;33812;46.480;6.834;2023-04-23T02:15:15;93254.84;;;19.94;42.18
48035;BME280;33812;46.480;6.834;2023-04-23T02:19:16;93253.41;;;20.02;42.43
48035;BME280;33812;46.480;6.834;2023-04-23T02:23:18;93264.97;;;19.84;42.40
48035;BME280;33812;46.480;6.834;2023-04-23T02:27:21;93255.63;;;19.95;42.48
48035;BME280;33812;46.480;6.834;2023-04-23T02:31:23;93255.19;;;19.96;42.33
48035;BME280;33812;46.480;6.834;2023-04-23T02:35:25;93258.38;;;19.95;42.44
48035;BME280;33812;46.480;6.834;2023-04-23T02:39:27;93257.59;;;19.94;42.77
48035;BME280;33812;46.480;6.834;2023-04-23T02:43:30;93252.19;;;19.90;42.74
48035;BME280;33812;46.480;6.834;2023-04-23T02:47:32;93246.22;;;19.79;43.06
48035;BME280;33812;46.480;6.834;2023-04-23T02:51:34;93241.16;;;19.77;42.87
48035;BME280;33812;46.480;6.834;2023-04-23T02:55:41;93249.66;;;19.96;42.60
48035;BME280;33812;46.480;6.834;2023-04-23T02:59:45;93248.66;;;19.90;42.79
48035;BME280;33812;46.480;6.834;2023-04-23T03:03:46;93242.50;;;19.86;42.77
48035;BME280;33812;46.480;6.834;2023-04-23T03:07:48;93242.81;;;19.88;42.63
48035;BME280;33812;46.480;6.834;2023-04-23T03:11:51;93230.34;;;19.96;42.83
48035;BME280;33812;46.480;6.834;2023-04-23T03:15:54;93239.19;;;19.91;42.69
48035;BME280;33812;46.480;6.834;2023-04-23T03:19:56;93240.38;;;19.90;42.67
48035;BME280;33812;46.480;6.834;2023-04-23T03:23:59;93225.28;;;19.95;42.71
48035;BME280;33812;46.480;6.834;2023-04-23T03:28:04;93222.66;;;19.91;42.56
48035;BME280;33812;46.480;6.834;2023-04-23T03:32:07;93226.59;;;19.90;42.94
48035;BME280;33812;46.480;6.834;2023-04-23T03:36:15;93219.56;;;19.89;42.80
48035;BME280;33812;46.480;6.834;2023-04-23T03:40:18;93215.56;;;19.90;43.02
48035;BME280;33812;46.480;6.834;2023-04-23T03:44:20;93221.75;;;19.94;42.79
48035;BME280;33812;46.480;6.834;2023-04-23T03:48:23;93229.03;;;19.75;42.58
48035;BME280;33812;46.480;6.834;2023-04-23T03:52:25;93217.78;;;19.82;43.06
48035;BME280;33812;46.480;6.834;2023-04-23T03:56:27;93211.16;;;19.79;42.93
48035;BME280;33812;46.480;6.834;2023-04-23T04:00:29;93214.16;;;19.72;43.05
48035;BME280;33812;46.480;6.834;2023-04-23T04:04:32;93213.91;;;19.79;43.09
48035;BME280;33812;46.480;6.834;2023-04-23T04:08:34;93208.31;;;19.70;42.90
48035;BME280;33812;46.480;6.834;2023-04-23T04:12:36;93206.22;;;19.22;44.06
48035;BME280;33812;46.480;6.834;2023-04-23T04:16:37;93201.91;;;19.60;43.62
48035;BME280;33812;46.480;6.834;2023-04-23T04:20:41;93197.19;;;19.35;43.97
48035;BME280;33812;46.480;6.834;2023-04-23T04:24:45;93194.66;;;19.66;43.48
48035;BME280;33812;46.480;6.834;2023-04-23T04:28:47;93190.34;;;19.26;43.97
48035;BME280;33812;46.480;6.834;2023-04-23T04:32:50;93187.34;;;19.60;43.69
48035;BME280;33812;46.480;6.834;2023-04-23T04:36:54;93193.16;;;19.09;44.67
48035;BME280;33812;46.480;6.834;2023-04-23T04:40:56;93188.44;;;19.23;44.82
48035;BME280;33812;46.480;6.834;2023-04-23T04:45:02;93186.69;;;19.42;43.96
48035;BME280;33812;46.480;6.834;2023-04-23T04:49:06;93193.31;;;19.45;44.08
48035;BME280;33812;46.480;6.834;2023-04-23T04:53:10;93193.97;;;19.36;44.15
48035;BME280;33812;46.480;6.834;2023-04-23T04:57:12;93182.72;;;19.30;44.53
48035;BME280;33812;46.480;6.834;2023-04-23T05:01:15;93176.66;;;19.36;44.31
48035;BME280;33812;46.480;6.834;2023-04-23T05:05:18;93185.72;;;19.75;43.59
48035;BME280;33812;46.480;6.834;2023-04-23T05:09:21;93184.59;;;19.33;44.39
48035;BME280;33812;46.480;6.834;2023-04-23T05:13:23;93184.72;;;19.43;44.65
48035;BME280;33812;46.480;6.834;2023-04-23T05:17:25;93192.00;;;19.50;44.44
48035;BME280;33812;46.480;6.834;2023-04-23T05:21:26;93178.78;;;19.57;44.05
48035;BME280;33812;46.480;6.834;2023-04-23T05:25:30;93168.44;;;19.97;43.80
48035;BME280;33812;46.480;6.834;2023-04-23T05:29:33;93167.19;;;19.50;44.90
48035;BME280;33812;46.480;6.834;2023-04-23T05:33:35;93177.63;;;19.81;44.27
48035;BME280;33812;46.480;6.834;2023-04-23T05:37:37;93175.50;;;19.98;44.16
48035;BME280;33812;46.480;6.834;2023-04-23T05:41:40;93163.25;;;20.12;44.30
48035;BME280;33812;46.480;6.834;2023-04-23T05:45:42;93149.16;;;19.97;44.03
48035;BME280;33812;46.480;6.834;2023-04-23T05:49:44;93165.06;;;17.49;48.40
48035;BME280;33812;46.480;6.834;2023-04-23T05:53:46;93151.25;;;19.93;45.11
48035;BME280;33812;46.480;6.834;2023-04-23T05:57:49;93140.44;;;20.34;43.74
48035;BME280;33812;46.480;6.834;2023-04-23T06:01:50;93143.22;;;20.57;43.95
48035;BME280;33812;46.480;6.834;2023-04-23T06:05:53;93139.28;;;20.67;43.78
48035;BME280;33812;46.480;6.834;2023-04-23T06:09:55;93134.16;;;20.78;43.82
48035;BME280;33812;46.480;6.834;2023-04-23T06:13:58;93136.91;;;20.78;43.68
48035;BME280;33812;46.480;6.834;2023-04-23T06:18:00;93132.44;;;20.94;43.16
48035;BME280;33812;46.480;6.834;2023-04-23T06:22:02;93131.31;;;20.92;43.94
48035;BME280;33812;46.480;6.834;2023-04-23T06:26:04;93133.59;;;20.93;44.24
48035;BME280;33812;46.480;6.834;2023-04-23T06:30:08;93129.22;;;20.96;44.17
48035;BME280;33812;46.480;6.834;2023-04-23T06:34:10;93122.44;;;20.97;44.23
48035;BME280;33812;46.480;6.834;2023-04-23T06:38:12;93125.41;;;21.02;43.76
48035;BME280;33812;46.480;6.834;2023-04-23T06:42:15;93125.72;;;21.05;44.17
48035;BME280;33812;46.480;6.834;2023-04-23T06:46:20;93126.03;;;21.07;44.39
48035;BME280;33812;46.480;6.834;2023-04-23T06:50:22;93118.38;;;21.11;45.68
48035;BME280;33812;46.480;6.834;2023-04-23T06:54:24;93112.72;;;21.14;45.36
48035;BME280;33812;46.480;6.834;2023-04-23T06:58:26;93110.28;;;21.17;45.24
48035;BME280;33812;46.480;6.834;2023-04-23T07:02:32;93112.13;;;21.20;44.98
48035;BME280;33812;46.480;6.834;2023-04-23T07:06:33;93114.56;;;21.18;44.66
48035;BME280;33812;46.480;6.834;2023-04-23T07:10:36;93117.50;;;21.23;44.58
48035;BME280;33812;46.480;6.834;2023-04-23T07:14:43;93105.22;;;21.24;44.69
48035;BME280;33812;46.480;6.834;2023-04-23T07:18:47;93104.47;;;21.24;44.43
48035;BME280;33812;46.480;6.834;2023-04-23T07:22:49;93101.88;;;21.30;44.42
48035;BME280;33812;46.480;6.834;2023-04-23T07:26:50;93108.50;;;21.32;44.21
48035;BME280;33812;46.480;6.834;2023-04-23T07:30:52;93106.19;;;21.31;44.06
48035;BME280;33812;46.480;6.834;2023-04-23T07:34:55;93108.03;;;21.34;43.93
48035;BME280;33812;46.480;6.834;2023-04-23T07:38:57;93115.25;;;21.41;44.37
48035;BME280;33812;46.480;6.834;2023-04-23T07:42:59;93115.41;;;21.37;44.13
48035;BME280;33812;46.480;6.834;2023-04-23T07:47:01;93116.50;;;21.40;44.77
48035;BME280;33812;46.480;6.834;2023-04-23T07:51:05;93105.44;;;21.40;44.46
48035;BME280;33812;46.480;6.834;2023-04-23T07:55:07;93100.53;;;21.44;44.41
48035;BME280;33812;46.480;6.834;2023-04-23T07:59:09;93094.53;;;21.45;44.76
48035;BME280;33812;46.480;6.834;2023-04-23T08:03:11;93096.09;;;21.46;44.75
48035;BME280;33812;46.480;6.834;2023-04-23T08:07:14;93099.19;;;21.48;44.92
48035;BME280;33812;46.480;6.834;2023-04-23T08:11:16;93096.69;;;21.50;44.94
48035;BME280;33812;46.480;6.834;2023-04-23T08:15:18;93087.97;;;21.52;45.05
48035;BME280;33812;46.480;6.834;2023-04-23T08:19:19;93093.94;;;21.50;44.67
48035;BME280;33812;46.480;6.834;2023-04-23T08:23:23;93102.22;;;21.50;44.42
48035;BME280;33812;46.480;6.834;2023-04-23T08:27:24;93095.19;;;21.49;44.23
48035;BME280;33812;46.480;6.834;2023-04-23T08:31:26;93082.00;;;21.54;44.46
48035;BME280;33812;46.480;6.834;2023-04-23T08:35:29;93078.31;;;21.57;44.81
48035;BME280;33812;46.480;6.834;2023-04-23T08:39:33;93077.06;;;21.58;45.14
48035;BME280;33812;46.480;6.834;2023-04-23T08:43:38;93076.16;;;21.61;44.97
48035;BME280;33812;46.480;6.834;2023-04-23T08:47:43;93075.78;;;21.40;43.58
48035;BME280;33812;46.480;6.834;2023-04-23T08:51:48;93072.13;;;21.53;44.66
48035;BME280;33812;46.480;6.834;2023-04-23T08:55:53;93073.09;;;21.59;44.48
48035;BME280;33812;46.480;6.834;2023-04-23T08:59:56;93069.72;;;21.64;44.73
48035;BME280;33812;46.480;6.834;2023-04-23T09:03:59;93072.03;;;21.66;44.73
48035;BME280;33812;46.480;6.834;2023-04-23T09:08:01;93072.78;;;21.57;44.86
48035;BME280;33812;46.480;6.834;2023-04-23T09:12:06;93058.47;;;21.58;45.09
48035;BME280;33812;46.480;6.834;2023-04-23T09:16:08;93064.78;;;21.59;45.03
48035;BME280;33812;46.480;6.834;2023-04-23T09:20:12;93060.94;;;21.56;44.88
48035;BME280;33812;46.480;6.834;2023-04-23T09:24:14;93066.59;;;21.53;44.86
48035;BME280;33812;46.480;6.834;2023-04-23T09:28:18;93058.47;;;21.49;44.73
48035;BME280;33812;46.480;6.834;2023-04-23T09:32:30;93061.06;;;21.43;44.43
48035;BME280;33812;46.480;6.834;2023-04-23T09:36:32;93057.69;;;21.39;44.48
48035;BME280;33812;46.480;6.834;2023-04-23T09:40:36;93056.63;;;21.36;44.33
48035;BME280;33812;46.480;6.834;2023-04-23T09:44:39;93045.84;;;21.38;44.13
48035;BME280;33812;46.480;6.834;2023-04-23T09:48:41;93048.16;;;21.31;44.06
48035;BME280;33812;46.480;6.834;2023-04-23T09:52:43;93036.34;;;21.49;43.91
48035;BME280;33812;46.480;6.834;2023-04-23T09:56:49;93040.97;;;21.61;44.35
48035;BME280;33812;46.480;6.834;2023-04-23T10:01:05;93035.59;;;21.67;45.20
48035;BME280;33812;46.480;6.834;2023-04-23T10:05:14;93031.28;;;21.57;45.13
48035;BME280;33812;46.480;6.834;2023-04-23T10:09:15;93025.13;;;21.43;44.98
48035;BME280;33812;46.480;6.834;2023-04-23T10:13:22;93039.44;;;21.42;44.91
48035;BME280;33812;46.480;6.834;2023-04-23T10:17:28;93031.28;;;21.47;44.70
48035;BME280;33812;46.480;6.834;2023-04-23T10:21:31;93021.91;;;21.45;44.19
48035;BME280;33812;46.480;6.834;2023-04-23T10:25:34;93030.03;;;21.39;44.12
48035;BME280;33812;46.480;6.834;2023-04-23T10:29:37;93020.50;;;21.40;44.44
48035;BME280;33812;46.480;6.834;2023-04-23T10:33:43;93016.53;;;21.41;43.81
48035;BME280;33812;46.480;6.834;2023-04-23T10:37:46;93011.16;;;21.37;43.96
48035;BME280;33812;46.480;6.834;2023-04-23T10:41:49;93014.38;;;21.36;44.04
48035;BME280;33812;46.480;6.834;2023-04-23T10:45:52;93009.75;;;21.42;44.21
48035;BME280;33812;46.480;6.834;2023-04-23T10:49:57;93007.44;;;21.31;42.90
48035;BME280;33812;46.480;6.834;2023-04-23T10:53:58;93013.88;;;21.28;42.64
48035;BME280;33812;46.480;6.834;2023-04-23T10:58:02;93014.03;;;21.24;43.14
48035;BME280;33812;46.480;6.834;2023-04-23T11:02:09;93003.59;;;21.29;42.92
48035;BME280;33812;46.480;6.834;2023-04-23T11:06:20;92983.19;;;21.35;43.21
48035;BME280;33812;46.480;6.834;2023-04-23T11:15:11;92996.63;;;21.05;43.27
48035;BME280;33812;46.480;6.834;2023-04-23T11:19:13;92986.69;;;21.08;42.45
48035;BME280;33812;46.480;6.834;2023-04-23T11:23:29;92978.72;;;21.19;43.06
48035;BME280;33812;46.480;6.834;2023-04-23T11:27:37;92970.31;;;21.42;43.07
48035;BME280;33812;46.480;6.834;2023-04-23T11:31:42;92971.22;;;21.38;43.30
48035;BME280;33812;46.480;6.834;2023-04-23T11:35:44;92969.22;;;21.30;43.31
48035;BME280;33812;46.480;6.834;2023-04-23T11:39:46;92958.91;;;21.21;43.16
48035;BME280;33812;46.480;6.834;2023-04-23T11:43:48;92966.44;;;21.20;42.96
48035;BME280;33812;46.480;6.834;2023-04-23T11:47:53;92960.63;;;21.37;43.32
48035;BME280;33812;46.480;6.834;2023-04-23T11:51:58;92963.84;;;21.54;43.75
48035;BME280;33812;46.480;6.834;2023-04-23T11:55:59;92958.78;;;21.62;43.29
48035;BME280;33812;46.480;6.834;2023-04-23T12:00:10;92956.66;;;21.66;43.20
48035;BME280;33812;46.480;6.834;2023-04-23T12:04:15;92950.66;;;21.68;43.37
48035;BME280;33812;46.480;6.834;2023-04-23T12:08:18;92940.81;;;21.67;43.49
48035;BME280;33812;46.480;6.834;2023-04-23T12:12:20;92938.81;;;21.67;43.32
48035;BME280;33812;46.480;6.834;2023-04-23T12:20:35;92938.22;;;21.72;43.46
48035;BME280;33812;46.480;6.834;2023-04-23T12:24:46;92946.50;;;21.72;43.21
48035;BME280;33812;46.480;6.834;2023-04-23T12:28:49;92945.25;;;21.73;43.04
48035;BME280;33812;46.480;6.834;2023-04-23T12:32:51;92936.06;;;21.77;42.88
48035;BME280;33812;46.480;6.834;2023-04-23T12:36:55;92932.81;;;21.78;43.11
48035;BME280;33812;46.480;6.834;2023-04-23T12:40:58;92932.06;;;21.78;42.99
48035;BME280;33812;46.480;6.834;2023-04-23T12:45:05;92933.13;;;21.80;43.19
48035;BME280;33812;46.480;6.834;2023-04-23T12:49:07;92931.47;;;21.83;43.31
48035;BME280;33812;46.480;6.834;2023-04-23T12:53:11;92920.88;;;21.81;43.48
48035;BME280;33812;46.480;6.834;2023-04-23T12:57:13;92916.84;;;21.82;43.26
48035;BME280;33812;46.480;6.834;2023-04-23T13:01:15;92919.16;;;21.84;43.20
48035;BME280;33812;46.480;6.834;2023-04-23T13:05:17;92917.63;;;21.83;43.11
48035;BME280;33812;46.480;6.834;2023-04-23T13:09:20;92925.94;;;21.83;43.22
48035;BME280;33812;46.480;6.834;2023-04-23T13:13:23;92922.69;;;21.84;43.21
48035;BME280;33812;46.480;6.834;2023-04-23T13:17:25;92926.25;;;21.85;43.32
48035;BME280;33812;46.480;6.834;2023-04-23T13:21:27;92913.94;;;21.86;43.51
48035;BME280;33812;46.480;6.834;2023-04-23T13:25:30;92908.72;;;21.88;43.47
48035;BME280;33812;46.480;6.834;2023-04-23T13:29:32;92905.47;;;21.90;43.48
48035;BME280;33812;46.480;6.834;2023-04-23T13:33:34;92903.47;;;21.90;43.63
48035;BME280;33812;46.480;6.834;2023-04-23T13:37:36;92904.53;;;21.93;43.51
48035;BME280;33812;46.480;6.834;2023-04-23T13:41:40;92898.25;;;21.92;43.57
48035;BME280;33812;46.480;6.834;2023-04-23T13:45:42;92904.38;;;21.96;43.20
48035;BME280;33812;46.480;6.834;2023-04-23T13:49:44;92892.38;;;22.00;43.11
48035;BME280;33812;46.480;6.834;2023-04-23T13:53:46;92891.94;;;22.01;42.56
48035;BME280;33812;46.480;6.834;2023-04-23T13:57:49;92892.09;;;21.97;44.05
48035;BME280;33812;46.480;6.834;2023-04-23T14:01:51;92875.19;;;21.95;44.17
48035;BME280;33812;46.480;6.834;2023-04-23T14:05:54;92877.63;;;22.03;43.11
48035;BME280;33812;46.480;6.834;2023-04-23T14:09:56;92875.00;;;22.08;42.40
48035;BME280;33812;46.480;6.834;2023-04-23T14:14:00;92878.53;;;22.09;43.35
48035;BME280;33812;46.480;6.834;2023-04-23T14:18:01;92873.31;;;22.02;42.65
48035;BME280;33812;46.480;6.834;2023-04-23T14:22:05;92874.88;;;22.03;42.89
48035;BME280;33812;46.480;6.834;2023-04-23T14:26:08;92861.66;;;21.97;42.36
48035;BME280;33812;46.480;6.834;2023-04-23T14:30:19;92857.34;;;21.96;42.66
48035;BME280;33812;46.480;6.834;2023-04-23T14:34:26;92847.38;;;21.99;42.26
48035;BME280;33812;46.480;6.834;2023-04-23T14:38:28;92838.91;;;21.93;42.89
48035;BME280;33812;46.480;6.834;2023-04-23T14:42:32;92830.00;;;21.98;42.01
48035;BME280;33812;46.480;6.834;2023-04-23T14:46:35;92826.28;;;22.02;41.59
48035;BME280;33812;46.480;6.834;2023-04-23T14:50:37;92820.44;;;22.00;41.17
48035;BME280;33812;46.480;6.834;2023-04-23T14:54:38;92825.97;;;22.00;41.01
48035;BME280;33812;46.480;6.834;2023-04-23T14:58:53;92822.78;;;22.01;41.19
48035;BME280;33812;46.480;6.834;2023-04-23T15:02:56;92822.00;;;22.01;40.72
48035;BME280;33812;46.480;6.834;2023-04-23T15:06:58;92831.81;;;22.02;41.04
48035;BME280;33812;46.480;6.834;2023-04-23T15:11:00;92835.38;;;22.02;40.90
48035;BME280;33812;46.480;6.834;2023-04-23T15:15:03;92837.81;;;22.00;39.96
48035;BME280;33812;46.480;6.834;2023-04-23T15:19:06;92842.59;;;22.00;40.58
48035;BME280;33812;46.480;6.834;2023-04-23T15:23:09;92847.38;;;21.99;40.66
48035;BME280;33812;46.480;6.834;2023-04-23T15:27:11;92866.09;;;22.04;40.69
48035;BME280;33812;46.480;6.834;2023-04-23T15:31:14;92862.25;;;22.02;41.31
48035;BME280;33812;46.480;6.834;2023-04-23T15:35:17;92877.91;;;22.05;40.19
48035;BME280;33812;46.480;6.834;2023-04-23T15:39:19;92881.16;;;22.03;41.13
48035;BME280;33812;46.480;6.834;2023-04-23T15:43:21;92896.06;;;22.06;40.24
48035;BME280;33812;46.480;6.834;2023-04-23T15:47:23;92903.91;;;22.07;40.87
48035;BME280;33812;46.480;6.834;2023-04-23T15:51:26;92961.69;;;22.05;41.31
48035;BME280;33812;46.480;6.834;2023-04-23T16:05:11;92998.13;;;21.94;40.63
48035;BME280;33812;46.480;6.834;2023-04-23T16:09:13;93006.63;;;21.91;40.77
48035;BME280;33812;46.480;6.834;2023-04-23T16:13:15;93000.00;;;21.88;40.43
48035;BME280;33812;46.480;6.834;2023-04-23T16:17:17;93017.81;;;21.87;40.52
48035;BME280;33812;46.480;6.834;2023-04-23T16:21:20;93014.13;;;21.81;40.18
48035;BME280;33812;46.480;6.834;2023-04-23T16:29:24;93027.31;;;21.67;39.73
48035;BME280;33812;46.480;6.834;2023-04-23T16:33:26;93045.16;;;21.66;39.74
48035;BME280;33812;46.480;6.834;2023-04-23T16:37:31;93064.78;;;21.59;39.78
48035;BME280;33812;46.480;6.834;2023-04-23T16:41:33;93057.72;;;21.58;39.73
48035;BME280;33812;46.480;6.834;2023-04-23T16:45:34;93069.50;;;21.49;39.78
48035;BME280;33812;46.480;6.834;2023-04-23T16:49:36;93066.88;;;21.45;39.63
48035;BME280;33812;46.480;6.834;2023-04-23T16:53:39;93073.97;;;21.46;39.89
48035;BME280;33812;46.480;6.834;2023-04-23T16:57:41;93084.44;;;21.52;39.95
48035;BME280;33812;46.480;6.834;2023-04-23T17:01:43;93088.25;;;21.45;40.28
48035;BME280;33812;46.480;6.834;2023-04-23T17:05:47;93075.22;;;21.55;40.25
48035;BME280;33812;46.480;6.834;2023-04-23T17:09:52;93065.09;;;21.61;40.88
48035;BME280;33812;46.480;6.834;2023-04-23T17:13:54;93047.91;;;21.66;41.27
48035;BME280;33812;46.480;6.834;2023-04-23T17:21:58;93030.84;;;21.77;41.34
48035;BME280;33812;46.480;6.834;2023-04-23T17:26:01;93046.53;;;21.80;42.12
48035;BME280;33812;46.480;6.834;2023-04-23T17:30:04;93059.94;;;21.82;42.36
48035;BME280;33812;46.480;6.834;2023-04-23T17:34:06;93036.09;;;21.84;42.88
48035;BME280;33812;46.480;6.834;2023-04-23T17:38:08;93028.41;;;21.79;43.31
48035;BME280;33812;46.480;6.834;2023-04-23T17:42:11;93032.72;;;21.90;43.66
48035;BME280;33812;46.480;6.834;2023-04-23T17:46:13;93028.59;;;21.85;43.42
48035;BME280;33812;46.480;6.834;2023-04-23T17:50:15;93035.47;;;21.80;43.70
48035;BME280;33812;46.480;6.834;2023-04-23T17:54:17;93035.63;;;21.77;43.72
48035;BME280;33812;46.480;6.834;2023-04-23T17:58:20;93046.38;;;21.74;43.79
48035;BME280;33812;46.480;6.834;2023-04-23T18:02:24;93053.75;;;20.76;40.40
48035;BME280;33812;46.480;6.834;2023-04-23T18:06:25;93046.31;;;20.10;39.65
48035;BME280;33812;46.480;6.834;2023-04-23T18:10:27;93067.28;;;20.52;39.05
48035;BME280;33812;46.480;6.834;2023-04-23T18:14:31;93066.16;;;21.04;39.66
48035;BME280;33812;46.480;6.834;2023-04-23T18:18:33;93068.38;;;21.18;40.91
48035;BME280;33812;46.480;6.834;2023-04-23T18:22:35;93086.97;;;21.27;42.37
48035;BME280;33812;46.480;6.834;2023-04-23T18:26:37;93081.00;;;21.29;42.90
48035;BME280;33812;46.480;6.834;2023-04-23T18:30:40;93091.63;;;21.40;43.57
48035;BME280;33812;46.480;6.834;2023-04-23T18:34:42;93078.72;;;21.46;43.99
48035;BME280;33812;46.480;6.834;2023-04-23T18:38:44;93079.03;;;21.48;44.16
48035;BME280;33812;46.480;6.834;2023-04-23T18:42:45;93081.81;;;21.48;44.87
48035;BME280;33812;46.480;6.834;2023-04-23T18:46:49;93088.41;;;21.50;45.34
48035;BME280;33812;46.480;6.834;2023-04-23T18:50:53;93084.28;;;21.55;45.50
48035;BME280;33812;46.480;6.834;2023-04-23T18:54:57;93077.06;;;21.58;45.73
48035;BME280;33812;46.480;6.834;2023-04-23T18:58:58;93081.84;;;21.57;45.52
48035;BME280;33812;46.480;6.834;2023-04-23T19:03:02;93087.97;;;21.61;45.88
48035;BME280;33812;46.480;6.834;2023-04-23T19:07:04;93084.28;;;21.65;46.06
48035;BME280;33812;46.480;6.834;2023-04-23T19:11:06;93082.63;;;21.67;45.76
48035;BME280;33812;46.480;6.834;2023-04-23T19:15:09;93070.31;;;21.68;45.90
48035;BME280;33812;46.480;6.834;2023-04-23T19:19:12;93081.84;;;21.67;45.05
48035;BME280;33812;46.480;6.834;2023-04-23T19:23:15;93081.69;;;21.61;44.62
48035;BME280;33812;46.480;6.834;2023-04-23T19:27:17;93076.78;;;21.65;44.92
48035;BME280;33812;46.480;6.834;2023-04-23T19:31:19;93083.53;;;21.64;44.77
48035;BME280;33812;46.480;6.834;2023-04-23T19:35:22;93078.00;;;21.64;44.71
48035;BME280;33812;46.480;6.834;2023-04-23T19:39:24;93079.69;;;21.61;44.72
48035;BME280;33812;46.480;6.834;2023-04-23T19:43:26;93068.47;;;21.65;44.62
48035;BME280;33812;46.480;6.834;2023-04-23T19:47:28;93082.63;;;21.67;44.58
48035;BME280;33812;46.480;6.834;2023-04-23T19:51:33;93081.25;;;21.62;44.76
48035;BME280;33812;46.480;6.834;2023-04-23T19:55:37;93089.81;;;21.65;44.62
48035;BME280;33812;46.480;6.834;2023-04-23T19:59:39;93104.44;;;21.65;44.63
48035;BME280;33812;46.480;6.834;2023-04-23T20:03:40;93099.22;;;21.67;44.64
48035;BME280;33812;46.480;6.834;2023-04-23T20:07:44;93097.69;;;21.66;44.72
48035;BME280;33812;46.480;6.834;2023-04-23T20:11:46;93110.72;;;21.66;44.61
48035;BME280;33812;46.480;6.834;2023-04-23T20:15:48;93094.16;;;21.66;44.99
48035;BME280;33812;46.480;6.834;2023-04-23T20:19:50;93095.66;;;21.67;44.97
48035;BME280;33812;46.480;6.834;2023-04-23T20:23:53;93110.41;;;21.64;44.77
48035;BME280;33812;46.480;6.834;2023-04-23T20:27:55;93086.63;;;21.66;44.90
48035;BME280;33812;46.480;6.834;2023-04-23T20:31:57;93088.94;;;21.68;44.82
48035;BME280;33812;46.480;6.834;2023-04-23T20:35:59;93083.41;;;21.68;44.37
48035;BME280;33812;46.480;6.834;2023-04-23T20:40:04;93091.69;;;21.68;44.50
48035;BME280;33812;46.480;6.834;2023-04-23T20:44:07;93083.41;;;21.68;44.86
48035;BME280;33812;46.480;6.834;2023-04-23T20:48:09;93078.75;;;21.65;44.77
48035;BME280;33812;46.480;6.834;2023-04-23T20:52:11;93078.75;;;21.65;44.60
48035;BME280;33812;46.480;6.834;2023-04-23T20:56:16;93081.09;;;21.66;44.38
48035;BME280;33812;46.480;6.834;2023-04-23T21:00:18;93078.63;;;21.68;44.70
48035;BME280;33812;46.480;6.834;2023-04-23T21:04:22;93063.72;;;21.66;44.43
48035;BME280;33812;46.480;6.834;2023-04-23T21:08:24;93070.94;;;21.63;44.39
48035;BME280;33812;46.480;6.834;2023-04-23T21:12:27;93063.72;;;21.66;44.36
48035;BME280;33812;46.480;6.834;2023-04-23T21:16:29;93066.94;;;21.64;44.26
48035;BME280;33812;46.480;6.834;2023-04-23T21:20:31;93071.69;;;21.64;44.34
48035;BME280;33812;46.480;6.834;2023-04-23T21:24:33;93078.75;;;21.65;44.16
48035;BME280;33812;46.480;6.834;2023-04-23T21:28:36;93082.00;;;21.63;44.24
48035;BME280;33812;46.480;6.834;2023-04-23T21:32:38;93070.63;;;21.61;44.06
48035;BME280;33812;46.480;6.834;2023-04-23T21:36:40;93069.09;;;21.60;44.18
48035;BME280;33812;46.480;6.834;2023-04-23T21:40:44;93070.63;;;21.61;44.13
48035;BME280;33812;46.480;6.834;2023-04-23T21:44:47;93067.88;;;21.61;44.10
48035;BME280;33812;46.480;6.834;2023-04-23T21:48:49;93081.69;;;21.61;43.91
48035;BME280;33812;46.480;6.834;2023-04-23T21:52:53;93079.69;;;21.61;43.96